Time;durP1;ratioP1;P1;durP2;ratioP2;P2;SDS_P1;SDS_P2;PMS_P1;PMS_P2;Temp;Humidity;BMP_temperature;BMP_pressure;BME280_temperature;BME280_humidity;BME280_pressure;Samples;Min_cycle;Max_cycle;Signal;HPM_P1;HPM_P2
2023/07/10 00:01:35;;;;;;;11.70;4.97;;;24.90;68.40;;;;;;20915261;28;20715;-69
2023/07/10 00:11:38;;;;;;;7.73;4.60;;;24.80;69.10;;;;;;20913002;28;20243;-68
2023/07/10 00:21:40;;;;;;;9.83;5.33;;;24.80;69.50;;;;;;20914944;28;20214;-68
2023/07/10 00:31:42;;;;;;;7.10;4.60;;;24.80;69.80;;;;;;20914479;28;20318;-68
2023/07/10 00:41:48;;;;;;;9.60;5.20;;;24.60;70.50;;;;;;20913302;28;20303;-68
2023/07/10 00:52:05;;;;;;;8.00;4.70;;;24.40;72.10;;;;;;20913165;28;20232;-68
2023/07/10 01:02:07;;;;;;;8.83;5.57;;;24.30;72.70;;;;;;20912412;28;20240;-69
2023/07/10 01:12:09;;;;;;;7.80;5.20;;;24.10;73.50;;;;;;20905937;28;20718;-69
2023/07/10 01:22:11;;;;;;;8.63;5.10;;;24.00;73.70;;;;;;20928850;28;20215;-69
2023/07/10 01:32:16;;;;;;;7.37;5.10;;;24.00;74.20;;;;;;20927726;28;20695;-69
2023/07/10 01:42:18;;;;;;;13.70;5.40;;;23.90;75.10;;;;;;20927094;28;20675;-67
2023/07/10 01:52:22;;;;;;;10.27;5.07;;;23.90;75.40;;;;;;20927137;28;20267;-67
2023/07/10 02:02:23;;;;;;;8.13;4.97;;;24.00;75.70;;;;;;20925743;28;20290;-67
2023/07/10 02:12:25;;;;;;;9.40;5.03;;;23.90;75.50;;;;;;20924757;28;20330;-67
2023/07/10 02:22:27;;;;;;;9.50;4.80;;;24.00;75.60;;;;;;20923314;28;20679;-66
2023/07/10 02:32:29;;;;;;;18.60;5.10;;;23.90;75.70;;;;;;20923396;28;20236;-66
2023/07/10 02:42:31;;;;;;;7.13;5.03;;;23.90;75.70;;;;;;20922326;28;20204;-67
2023/07/10 02:52:33;;;;;;;10.33;5.20;;;23.90;75.80;;;;;;20921364;28;20271;-67
2023/07/10 03:02:35;;;;;;;9.33;5.53;;;23.90;75.90;;;;;;20921440;28;20282;-68
2023/07/10 03:12:36;;;;;;;12.53;4.90;;;23.90;75.70;;;;;;20920181;28;20640;-68
2023/07/10 03:22:38;;;;;;;9.97;4.97;;;23.80;76.60;;;;;;20919575;28;20237;-66
2023/07/10 03:32:40;;;;;;;8.80;5.43;;;23.70;76.80;;;;;;20918034;28;20227;-66
2023/07/10 03:42:42;;;;;;;11.90;5.80;;;23.70;77.30;;;;;;20918077;28;20250;-67
2023/07/10 03:52:44;;;;;;;10.90;7.07;;;23.60;78.00;;;;;;20916752;28;20326;-67
2023/07/10 04:02:45;;;;;;;11.80;6.03;;;23.70;78.30;;;;;;20916247;28;20254;-67
2023/07/10 04:12:47;;;;;;;9.60;6.40;;;23.70;78.40;;;;;;20915384;28;20236;-67
2023/07/10 04:22:49;;;;;;;6.10;5.13;;;23.70;78.80;;;;;;20914470;28;20618;-67
2023/07/10 04:32:50;;;;;;;13.33;5.90;;;23.70;79.40;;;;;;20914423;28;20237;-67
2023/07/10 04:42:54;;;;;;;16.53;7.90;;;23.70;79.90;;;;;;20912893;28;20258;-68
2023/07/10 04:52:56;;;;;;;13.20;5.70;;;23.70;80.50;;;;;;20912598;28;20314;-66
2023/07/10 05:02:57;;;;;;;13.10;6.10;;;23.60;81.30;;;;;;20912256;28;20664;-67
2023/07/10 05:12:59;;;;;;;11.73;6.70;;;23.70;81.90;;;;;;20912043;28;20235;-69
2023/07/10 05:23:01;;;;;;;20.47;6.60;;;23.90;82.30;;;;;;20911157;28;20204;-68
2023/07/10 05:33:03;;;;;;;21.23;8.10;;;24.20;82.30;;;;;;20910970;28;20242;-68
2023/07/10 05:43:09;;;;;;;13.33;6.83;;;24.40;81.90;;;;;;20904435;28;20208;-71
2023/07/10 05:53:10;;;;;;;6.27;4.97;;;24.70;81.30;;;;;;20904178;28;20230;-69
2023/07/10 06:03:12;;;;;;;8.73;5.13;;;25.10;80.50;;;;;;20923536;28;20307;-71
2023/07/10 06:13:14;;;;;;;8.87;4.87;;;25.30;80.00;;;;;;20922062;28;20572;-70
2023/07/10 06:23:16;;;;;;;19.60;6.00;;;25.20;80.50;;;;;;20922605;28;20227;-69
2023/07/10 06:33:18;;;;;;;20.40;6.07;;;25.30;80.80;;;;;;20922819;28;20259;-70
2023/07/10 06:43:20;;;;;;;7.90;5.57;;;25.30;80.80;;;;;;20921404;28;20235;-70
2023/07/10 06:53:23;;;;;;;12.47;6.03;;;25.30;81.10;;;;;;20920797;28;20820;-71
2023/07/10 07:03:29;;;;;;;11.83;5.67;;;25.20;81.50;;;;;;20920668;28;20234;-69
2023/07/10 07:13:30;;;;;;;10.87;6.00;;;25.30;81.50;;;;;;20901843;28;20282;-69
2023/07/10 07:23:32;;;;;;;10.37;5.50;;;25.60;81.30;;;;;;20918795;28;20725;-69
2023/07/10 07:33:34;;;;;;;16.80;6.43;;;25.80;81.10;;;;;;20918154;28;20236;-69
2023/07/10 07:43:36;;;;;;;10.83;6.23;;;25.80;80.90;;;;;;20917465;28;20307;-70
2023/07/10 07:53:41;;;;;;;12.97;6.37;;;26.00;81.00;;;;;;20916385;28;20242;-67
2023/07/10 08:03:42;;;;;;;10.97;6.23;;;26.10;81.00;;;;;;20898097;28;20660;-68
2023/07/10 08:13:44;;;;;;;8.70;5.73;;;26.30;80.50;;;;;;20912921;28;20239;-69
2023/07/10 08:23:46;;;;;;;9.90;5.60;;;26.50;79.50;;;;;;20911893;28;20211;-71
2023/07/10 08:33:48;;;;;;;9.37;5.43;;;26.60;78.10;;;;;;20913041;28;20318;-71
2023/07/10 08:43:50;;;;;;;10.53;5.53;;;26.80;77.70;;;;;;20910010;28;20251;-72
2023/07/10 08:54:03;;;;;;;18.67;5.97;;;27.00;77.00;;;;;;20909619;28;20271;-72
2023/07/10 09:04:11;;;;;;;9.07;5.95;;;27.10;76.50;;;;;;20911882;28;20232;-72
2023/07/10 09:14:50;;;;;;;14.30;6.93;;;27.20;76.10;;;;;;20911519;28;20255;-70
2023/07/10 09:24:53;;;;;;;10.97;7.10;;;27.50;75.60;;;;;;20910937;28;20250;-69
2023/07/10 09:34:58;;;;;;;14.95;8.07;;;27.50;75.30;;;;;;20905792;28;20232;-67
2023/07/10 09:45:00;;;;;;;14.95;8.07;;;27.60;76.50;;;;;;20926348;28;20208;-71
2023/07/10 09:55:08;;;;;;;12.02;7.85;;;27.70;76.30;;;;;;20925907;28;20318;-70
2023/07/10 10:05:15;;;;;;;16.30;9.03;;;27.90;75.70;;;;;;20907458;28;20571;-73
2023/07/10 10:15:27;;;;;;;14.83;9.70;;;28.00;75.60;;;;;;20923987;28;20700;-72
2023/07/10 10:25:37;;;;;;;11.07;8.40;;;28.00;75.90;;;;;;20923607;28;20207;-69
2023/07/10 10:35:44;;;;;;;18.52;8.85;;;28.00;73.90;;;;;;20922500;28;20297;-67
2023/07/10 10:45:54;;;;;;;13.07;8.88;;;28.00;71.10;;;;;;20919374;28;20219;-68
2023/07/10 10:56:25;;;;;;;10.15;9.05;;;28.20;69.80;;;;;;20920491;28;20232;-67
2023/07/10 11:06:38;;;;;;;11.85;9.27;;;28.50;68.70;;;;;;20912625;28;20607;-68
2023/07/10 11:16:40;;;;;;;11.95;9.40;;;28.30;69.00;;;;;;20919529;28;20231;-70
2023/07/10 11:26:42;;;;;;;14.48;9.93;;;28.30;68.10;;;;;;20917996;28;20285;-70
2023/07/10 11:36:47;;;;;;;17.77;9.68;;;28.50;67.60;;;;;;20916980;28;20306;-70
2023/07/10 11:47:00;;;;;;;14.77;9.75;;;28.70;67.20;;;;;;20916347;28;20329;-71
2023/07/10 11:57:14;;;;;;;13.82;7.95;;;28.80;65.80;;;;;;20914926;28;20282;-71
2023/07/10 12:07:17;;;;;;;15.30;9.10;;;29.10;64.10;;;;;;20898415;28;20591;-69
2023/07/10 12:17:18;;;;;;;10.43;8.10;;;29.30;62.50;;;;;;20907491;28;20231;-69
2023/07/10 12:27:24;;;;;;;9.32;7.25;;;29.60;61.10;;;;;;20914254;28;20287;-70
2023/07/10 12:37:28;;;;;;;12.63;8.10;;;29.80;59.10;;;;;;20913600;28;20231;-68
2023/07/10 12:47:33;;;;;;;9.85;7.45;;;29.80;58.10;;;;;;20909843;28;20204;-68
2023/07/10 12:57:48;;;;;;;6.97;6.28;;;30.00;56.50;;;;;;20905888;28;20756;-68
2023/07/10 13:07:54;;;;;;;12.75;6.97;;;30.00;55.40;;;;;;20905115;28;20231;-68
2023/07/10 13:17:56;;;;;;;13.88;7.22;;;30.10;54.10;;;;;;20907983;28;20254;-75
2023/07/10 13:27:57;;;;;;;12.93;7.53;;;30.00;54.70;;;;;;20908959;28;20258;-68
2023/07/10 13:37:59;;;;;;;9.25;6.70;;;30.30;54.20;;;;;;20906698;28;20262;-70
2023/07/10 13:48:07;;;;;;;9.23;6.40;;;30.50;53.10;;;;;;20906503;28;20289;-70
2023/07/10 13:58:19;;;;;;;13.68;6.20;;;30.50;51.80;;;;;;20906221;28;20232;-70
2023/07/10 14:08:26;;;;;;;11.38;6.57;;;30.50;51.90;;;;;;20904448;28;20246;-70
2023/07/10 14:18:29;;;;;;;11.50;7.90;;;30.40;53.00;;;;;;20895721;28;20717;-70
2023/07/10 14:28:30;;;;;;;12.07;8.02;;;30.60;54.30;;;;;;20921669;28;20577;-71
2023/07/10 14:38:32;;;;;;;9.18;7.28;;;31.70;54.00;;;;;;20922369;28;20232;-71
2023/07/10 14:48:34;;;;;;;13.82;7.07;;;31.60;54.30;;;;;;20922482;28;20679;-72
2023/07/10 14:58:37;;;;;;;9.57;6.63;;;31.30;52.30;;;;;;20903894;28;20235;-69
2023/07/10 15:08:39;;;;;;;8.05;6.38;;;32.10;51.40;;;;;;20919943;28;20240;-70
2023/07/10 15:18:42;;;;;;;10.35;5.68;;;31.80;50.50;;;;;;20920137;28;20236;-70
2023/07/10 15:28:43;;;;;;;11.07;6.95;;;31.30;51.20;;;;;;20911179;28;20281;-69
2023/07/10 15:38:46;;;;;;;8.75;6.22;;;31.20;52.10;;;;;;20911927;28;20814;-69
2023/07/10 15:48:47;;;;;;;9.60;6.45;;;31.20;52.80;;;;;;20911518;28;20211;-69
2023/07/10 15:58:49;;;;;;;12.43;6.55;;;31.30;52.60;;;;;;20909754;28;20285;-73
2023/07/10 16:08:51;;;;;;;12.02;5.70;;;31.40;51.10;;;;;;20909198;28;20331;-71
2023/07/10 16:18:54;;;;;;;6.60;5.75;;;33.40;49.00;;;;;;20891352;28;20659;-70
2023/07/10 16:28:55;;;;;;;7.80;6.30;;;35.20;46.50;;;;;;20907840;28;20207;-73
2023/07/10 16:38:57;;;;;;;9.40;6.15;;;34.70;46.40;;;;;;20906811;28;20282;-74
2023/07/10 16:48:59;;;;;;;10.52;7.63;;;33.00;48.20;;;;;;20901165;28;20251;-74
2023/07/10 16:59:01;;;;;;;7.05;5.97;;;32.00;49.20;;;;;;20904534;28;20216;-77
2023/07/10 17:09:04;;;;;;;11.98;6.05;;;31.70;49.60;;;;;;20887652;28;20246;-72
2023/07/10 17:19:06;;;;;;;7.60;6.32;;;32.80;47.80;;;;;;20905892;28;20274;-71
2023/07/10 17:29:17;;;;;;;10.77;6.53;;;33.30;47.20;;;;;;20905918;28;20570;-72
2023/07/10 17:39:25;;;;;;;7.32;6.07;;;33.10;47.40;;;;;;20891845;28;20211;-72
2023/07/10 17:49:30;;;;;;;7.82;6.55;;;34.00;46.10;;;;;;20915756;28;20231;-70
2023/07/10 17:59:34;;;;;;;8.43;6.20;;;33.90;46.00;;;;;;20913296;28;20204;-72
2023/07/10 18:09:36;;;;;;;7.38;6.22;;;32.40;48.00;;;;;;20925622;28;20262;-71
2023/07/10 18:19:38;;;;;;;11.50;6.78;;;30.90;49.90;;;;;;20924859;28;20208;-70
2023/07/10 18:29:40;;;;;;;9.55;6.30;;;30.20;50.90;;;;;;20926267;28;20754;-72
2023/07/10 18:39:43;;;;;;;7.90;6.97;;;29.70;52.20;;;;;;20923731;28;20208;-71
2023/07/10 18:49:45;;;;;;;9.27;6.38;;;29.30;53.10;;;;;;20901606;28;20277;-71
2023/07/10 18:59:47;;;;;;;17.30;6.95;;;28.90;54.00;;;;;;20919695;28;20204;-72
2023/07/10 19:09:49;;;;;;;7.75;6.72;;;28.60;54.70;;;;;;20918693;28;20236;-70
2023/07/10 19:19:52;;;;;;;9.17;7.20;;;28.30;55.30;;;;;;20919019;28;20239;-70
2023/07/10 19:29:54;;;;;;;12.73;7.20;;;27.90;56.30;;;;;;20919078;28;20687;-71
2023/07/10 19:39:56;;;;;;;9.70;7.13;;;27.70;57.20;;;;;;20899567;28;20659;-71
2023/07/10 19:49:59;;;;;;;11.33;7.20;;;27.40;58.20;;;;;;20915447;28;20830;-71
2023/07/10 20:00:01;;;;;;;12.30;7.20;;;27.10;59.40;;;;;;20915259;28;20543;-70
2023/07/10 20:10:03;;;;;;;10.87;7.10;;;27.00;60.50;;;;;;20914100;28;20307;-72
2023/07/10 20:20:36;;;;;;;10.20;7.70;;;26.70;62.00;;;;;;20896211;28;20244;-73
2023/07/10 20:30:38;;;;;;;12.60;7.97;;;26.40;63.40;;;;;;20913838;28;20235;-72
2023/07/10 20:40:40;;;;;;;12.33;8.03;;;26.10;63.80;;;;;;20917457;28;20266;-72
2023/07/10 20:50:41;;;;;;;14.50;7.77;;;26.00;64.50;;;;;;20920392;28;20268;-73
2023/07/10 21:00:45;;;;;;;10.40;7.37;;;25.80;65.20;;;;;;20911940;28;20623;-74
2023/07/10 21:10:48;;;;;;;10.77;7.70;;;25.60;65.90;;;;;;20908469;28;20247;-71
2023/07/10 21:20:51;;;;;;;11.93;8.37;;;25.30;66.70;;;;;;20907167;28;20210;-71
2023/07/10 21:30:52;;;;;;;13.37;8.17;;;25.10;67.00;;;;;;20925056;28;20243;-72
2023/07/10 21:40:56;;;;;;;15.80;8.20;;;24.90;67.70;;;;;;20935361;28;20215;-72
2023/07/10 21:51:01;;;;;;;9.43;7.40;;;24.80;68.50;;;;;;20938441;28;20698;-70
2023/07/10 22:01:02;;;;;;;14.43;8.53;;;24.50;69.20;;;;;;20928064;28;20247;-70
2023/07/10 22:11:31;;;;;;;10.10;7.70;;;24.40;69.70;;;;;;20907848;28;20573;-70
2023/07/10 22:21:34;;;;;;;15.90;7.50;;;24.20;70.90;;;;;;20925027;28;20220;-70
2023/07/10 22:31:39;;;;;;;10.43;8.40;;;24.10;72.00;;;;;;20924484;28;20294;-70
2023/07/10 22:41:43;;;;;;;8.50;7.47;;;23.90;72.80;;;;;;20922809;28;20625;-71
2023/07/10 22:51:44;;;;;;;8.57;7.47;;;23.70;73.50;;;;;;20922512;28;20238;-71
2023/07/10 23:01:48;;;;;;;13.13;7.57;;;23.60;73.90;;;;;;20922176;28;20629;-70
2023/07/10 23:11:50;;;;;;;10.60;8.07;;;23.40;74.70;;;;;;20903667;28;20244;-72
2023/07/10 23:21:52;;;;;;;11.50;8.17;;;23.20;75.60;;;;;;20921257;28;20291;-73
2023/07/10 23:31:54;;;;;;;13.83;8.93;;;23.10;76.70;;;;;;20924097;28;20235;-72
2023/07/10 23:41:56;;;;;;;10.70;8.70;;;22.80;77.30;;;;;;20926518;28;20287;-71
2023/07/10 23:51:57;;;;;;;14.77;8.53;;;22.80;78.60;;;;;;20916607;28;20319;-70
